Avalon, Texas
Current Conditions -  °F | °C
As of 8:35 PM on Friday 24 Oct 2014 (Local Time) from KJWY Reporting Station
Clear Clear  
Wind Chill: 22°   Ceiling: Unl
Heat Index: 22°   Visibility: 10mi
Dew Point: 16°   Wind: 3mph
Humidity: 69%   Direction: 150°SSE
Pressure: 30.11"   Gusts: NA
Location:  32.21°N, 96.79°W
Report Text: KJWY 250135Z AUTO 15003KT 10SM CLR 22/16 A3011 RMK AO2 T02180160
Loading
Personal Weather Stations






























Interactive Weather Map
Tropical Storm Tracking
New forecast layout! Learn more

10-Day Weather Forecast

Advertisements
Track Severe Weather on mobile